LFPM 100200Z AUTO 26004KT 9999 FEW021 16/14 Q1013

Notre flotte, composée de neuf avions de 65 à 285 CV